Terminal Aerodrome Forecast
Issued by NWS San Angelo, TX

Home | Current Version | Previous Version | Text Only | Print | Product List | Glossary On
Versions: 1 2 3 4 5 6 7 8 9 10 11 12 13 14 15 16 17 18 19 20 21 22 23
403
FTUS44 KSJT 022322
TAFABI
TAF
KABI 022322Z 0300/0324 10010KT 6SM -RA BR OVC025
     FM030300 08006KT 5SM -DZ BR OVC015
     FM030600 08007KT 3SM -DZ BR OVC009
     FM031000 04006KT 2SM -RA BR OVC006=

USA.gov is the U.S. government's official web portal to all federal, state and local government web resources and services.